createdAt,value
2022-10-15T00:01:29.499Z,100241.72
2022-10-15T00:03:56.605Z,100239.00
2022-10-15T00:06:23.606Z,100236.16
2022-10-15T00:08:50.564Z,100232.47
2022-10-15T00:11:21.198Z,100238.88
2022-10-15T00:13:48.727Z,100239.91
2022-10-15T00:16:21.106Z,100233.44
2022-10-15T00:18:48.792Z,100235.38
2022-10-15T00:21:20.338Z,100222.81
2022-10-15T00:23:48.775Z,100234.25
2022-10-15T00:26:22.619Z,100229.84
2022-10-15T00:28:51.307Z,100226.41
2022-10-15T00:31:21.023Z,100218.41
2022-10-15T00:33:53.272Z,100226.28
2022-10-15T00:36:24.190Z,100222.81
2022-10-15T00:38:52.239Z,100223.56
2022-10-15T00:41:32.723Z,100225.16
2022-10-15T00:44:21.789Z,100221.44
2022-10-15T00:46:55.948Z,100220.66
2022-10-15T00:49:40.408Z,100213.09
2022-10-15T00:52:21.709Z,100210.16
2022-10-15T00:54:57.926Z,100206.44
2022-10-15T00:57:25.718Z,100209.59
2022-10-15T00:59:58.357Z,100212.53
2022-10-15T01:02:25.853Z,100211.44
2022-10-15T01:04:53.696Z,100208.81
2022-10-15T01:07:20.691Z,100208.78
2022-10-15T01:09:48.023Z,100206.00
2022-10-15T01:12:55.061Z,100209.47
2022-10-15T01:15:31.790Z,100203.22
2022-10-15T01:18:46.120Z,100203.97
2022-10-15T01:21:54.716Z,100202.25
2022-10-15T01:24:42.918Z,100201.63
2022-10-15T01:27:29.520Z,100206.63
2022-10-15T01:30:25.874Z,100192.34
2022-10-15T01:33:31.862Z,100199.19
2022-10-15T01:36:23.368Z,100198.41
2022-10-15T01:39:18.916Z,100196.19
2022-10-15T01:41:54.374Z,100203.81
2022-10-15T01:44:42.648Z,100190.69
2022-10-15T01:47:44.462Z,100195.53
2022-10-15T01:50:13.654Z,100191.38
2022-10-15T01:52:42.173Z,100193.06
2022-10-15T01:55:14.765Z,100189.56
2022-10-15T01:57:45.012Z,100191.13
2022-10-15T02:00:12.819Z,100189.44
2022-10-15T02:02:41.999Z,100179.44
2022-10-15T02:05:20.466Z,100178.88
2022-10-15T02:08:13.344Z,100182.31
2022-10-15T02:11:20.003Z,100173.19
2022-10-15T02:14:10.621Z,100175.00
2022-10-15T02:17:08.357Z,100171.47
2022-10-15T02:19:52.110Z,100171.47
2022-10-15T02:22:32.272Z,100166.28
2022-10-15T02:25:06.942Z,100168.78
2022-10-15T02:27:36.024Z,100169.56
2022-10-15T02:30:08.224Z,100159.69
2022-10-15T02:32:39.071Z,100160.72
2022-10-15T02:35:10.549Z,100157.25
2022-10-15T02:37:42.900Z,100154.53
2022-10-15T02:40:10.854Z,100147.03
2022-10-15T02:42:37.975Z,100156.63
2022-10-15T02:45:05.599Z,100145.97
2022-10-15T02:47:32.779Z,100148.84
2022-10-15T02:49:59.783Z,100150.44
2022-10-15T02:52:26.812Z,100150.31
2022-10-15T02:54:53.808Z,100152.00
2022-10-15T02:57:20.901Z,100152.03
2022-10-15T02:59:48.092Z,100146.16
2022-10-15T03:02:16.964Z,100149.50
2022-10-15T03:04:46.510Z,100145.06
2022-10-15T03:07:14.257Z,100147.97
2022-10-15T03:09:41.176Z,100137.47
2022-10-15T03:12:08.614Z,100139.06
2022-10-15T03:14:35.543Z,100147.50
2022-10-15T03:17:02.483Z,100146.91
2022-10-15T03:19:29.482Z,100150.81
2022-10-15T03:21:56.399Z,100146.44
2022-10-15T03:24:23.302Z,100137.44
2022-10-15T03:26:50.269Z,100138.84
2022-10-15T03:29:17.151Z,100142.59
2022-10-15T03:31:44.079Z,100150.50
2022-10-15T03:34:11.046Z,100146.13
2022-10-15T03:36:37.979Z,100150.34
2022-10-15T03:39:05.925Z,100147.66
2022-10-15T03:41:32.922Z,100148.19
2022-10-15T03:44:05.726Z,100146.69
2022-10-15T03:46:33.553Z,100152.34
2022-10-15T03:49:01.550Z,100142.22
2022-10-15T03:51:31.426Z,100140.13
2022-10-15T03:53:58.810Z,100131.19
2022-10-15T03:56:25.803Z,100125.75
2022-10-15T03:58:52.735Z,100119.19
2022-10-15T04:01:19.852Z,100116.72
2022-10-15T04:03:47.042Z,100123.16
2022-10-15T04:06:13.986Z,100117.19
2022-10-15T04:08:40.976Z,100114.69
2022-10-15T04:11:07.947Z,100112.81
2022-10-15T04:13:34.911Z,100115.72
2022-10-15T04:16:05.631Z,100110.34
2022-10-15T04:18:33.101Z,100109.38
2022-10-15T04:21:01.420Z,100112.06
2022-10-15T04:23:28.539Z,100115.97
2022-10-15T04:26:00.374Z,100116.13
2022-10-15T04:28:28.609Z,100106.34
2022-10-15T04:30:59.668Z,100110.94
2022-10-15T04:33:27.694Z,100111.41
2022-10-15T04:36:09.099Z,100106.63
2022-10-15T04:38:36.129Z,100102.31
2022-10-15T04:41:10.539Z,100107.50
2022-10-15T04:43:38.599Z,100110.16
2022-10-15T04:46:08.823Z,100113.63
2022-10-15T04:48:40.493Z,100103.34
2022-10-15T04:51:16.968Z,100108.78
2022-10-15T04:53:44.368Z,100113.91
2022-10-15T04:56:17.842Z,100104.13
2022-10-15T04:58:47.701Z,100105.28
2022-10-15T05:01:21.139Z,100111.34
2022-10-15T05:03:49.195Z,100100.50
2022-10-15T05:06:21.977Z,100107.16
2022-10-15T05:08:49.938Z,100093.00
2022-10-15T05:11:26.402Z,100104.59
2022-10-15T05:13:55.906Z,100113.53
2022-10-15T05:16:29.220Z,100117.28
2022-10-15T05:19:00.363Z,100115.56
2022-10-15T05:21:27.981Z,100099.38
2022-10-15T05:23:55.073Z,100105.16
2022-10-15T05:26:25.493Z,100110.88
2022-10-15T05:28:53.230Z,100113.53
2022-10-15T05:31:22.747Z,100104.03
2022-10-15T05:33:52.051Z,100103.78
2022-10-15T05:36:24.849Z,100110.56
2022-10-15T05:38:58.073Z,100115.59
2022-10-15T05:41:26.556Z,100116.78
2022-10-15T05:43:56.127Z,100122.28
2022-10-15T05:46:23.579Z,100130.84
2022-10-15T05:48:56.225Z,100125.31
2022-10-15T05:51:25.829Z,100128.78
2022-10-15T05:53:57.369Z,100130.16
2022-10-15T05:56:26.036Z,100131.66
2022-10-15T05:58:52.979Z,100130.84
2022-10-15T06:01:20.188Z,100127.25
2022-10-15T06:03:47.282Z,100126.53
2022-10-15T06:06:26.550Z,100128.31
2022-10-15T06:08:55.288Z,100133.50
2022-10-15T06:11:22.935Z,100127.59
2022-10-15T06:13:49.962Z,100134.97
2022-10-15T06:16:21.121Z,100139.59
2022-10-15T06:18:53.573Z,100133.06
2022-10-15T06:21:20.998Z,100136.59
2022-10-15T06:23:47.961Z,100141.78
2022-10-15T06:26:14.875Z,100135.81
2022-10-15T06:28:41.982Z,100142.66
2022-10-15T06:31:09.337Z,100147.19
2022-10-15T06:33:36.899Z,100140.81
2022-10-15T06:36:09.712Z,100153.88
2022-10-15T06:38:37.552Z,100145.69
2022-10-15T06:41:06.585Z,100152.75
2022-10-15T06:43:35.222Z,100148.78
2022-10-15T06:46:06.384Z,100148.03
2022-10-15T06:48:33.835Z,100155.38
2022-10-15T06:51:02.235Z,100159.09
2022-10-15T06:53:30.273Z,100159.28
2022-10-15T06:56:03.032Z,100160.75
2022-10-15T06:58:30.386Z,100155.78
2022-10-15T07:01:06.045Z,100148.97
2022-10-15T07:03:33.470Z,100161.84
2022-10-15T07:06:06.515Z,100161.13
2022-10-15T07:08:34.070Z,100152.34
2022-10-15T07:11:06.278Z,100158.72
2022-10-15T07:13:33.467Z,100148.59
2022-10-15T07:16:07.932Z,100146.63
2022-10-15T07:18:35.784Z,100144.50
2022-10-15T07:21:05.137Z,100150.19
2022-10-15T07:23:32.576Z,100150.81
2022-10-15T07:26:01.195Z,100148.66
2022-10-15T07:28:28.470Z,100146.16
2022-10-15T07:30:59.639Z,100156.66
2022-10-15T07:33:26.613Z,100159.19
2022-10-15T07:35:53.554Z,100147.47
2022-10-15T07:38:20.548Z,100142.19
2022-10-15T07:40:47.565Z,100142.22
2022-10-15T07:43:16.025Z,100141.53
2022-10-15T07:45:48.389Z,100132.38
2022-10-15T07:48:15.429Z,100138.69
2022-10-15T07:50:42.447Z,100154.84
2022-10-15T07:53:09.719Z,100153.91
2022-10-15T07:55:36.655Z,100149.44
2022-10-15T07:58:05.813Z,100144.13
2022-10-15T08:03:05.766Z,100142.19
2022-10-15T08:05:33.745Z,100145.00
2022-10-15T08:08:00.850Z,100139.69
2022-10-15T08:10:28.382Z,100136.84
2022-10-15T08:12:55.302Z,100135.91
2022-10-15T08:15:22.185Z,100134.78
2022-10-15T08:17:49.137Z,100128.47
2022-10-15T08:20:16.106Z,100134.63
2022-10-15T08:22:43.027Z,100134.69
2022-10-15T08:25:10.062Z,100140.34
2022-10-15T08:27:37.702Z,100149.50
2022-10-15T08:30:05.294Z,100143.88
2022-10-15T08:32:32.265Z,100142.94
2022-10-15T08:34:59.171Z,100135.78
2022-10-15T08:37:26.115Z,100138.66
2022-10-15T08:39:53.131Z,100140.59
2022-10-15T08:42:37.415Z,100132.75
2022-10-15T08:45:19.397Z,100132.22
2022-10-15T08:47:57.077Z,100123.38
2022-10-15T08:51:05.415Z,100116.97
2022-10-15T08:53:54.072Z,100124.25
2022-10-15T08:56:45.752Z,100112.03
2022-10-15T08:59:39.755Z,100118.91
2022-10-15T09:02:26.810Z,100124.34
2022-10-15T09:05:03.448Z,100115.78
2022-10-15T09:08:11.488Z,100116.13
2022-10-15T09:11:00.436Z,100122.44
2022-10-15T09:13:42.354Z,100111.75
2022-10-15T09:16:22.492Z,100128.31
2022-10-15T09:18:53.300Z,100118.75
2022-10-15T09:21:27.984Z,100125.69
2022-10-15T09:24:18.443Z,100119.38
2022-10-15T09:27:28.150Z,100131.56
2022-10-15T09:30:31.137Z,100132.72
2022-10-15T09:33:12.833Z,100128.50
2022-10-15T09:35:53.138Z,100132.66
2022-10-15T09:38:45.523Z,100123.03
2022-10-15T09:41:18.259Z,100140.03
2022-10-15T09:43:50.389Z,100126.00
2022-10-15T09:46:17.648Z,100127.72
2022-10-15T09:48:53.529Z,100126.22
2022-10-15T09:52:03.220Z,100133.28
2022-10-15T09:55:08.885Z,100121.72
2022-10-15T09:57:37.744Z,100128.03
2022-10-15T10:00:13.698Z,100130.75
2022-10-15T10:02:41.091Z,100124.50
2022-10-15T10:05:33.412Z,100120.97
2022-10-15T10:08:24.767Z,100116.53
2022-10-15T10:11:01.596Z,100109.22
2022-10-15T10:13:46.234Z,100116.41
2022-10-15T10:16:15.828Z,100104.81
2022-10-15T10:18:50.474Z,100107.59
2022-10-15T10:21:31.322Z,100098.44
2022-10-15T10:24:35.852Z,100104.63
2022-10-15T10:27:06.388Z,100099.03
2022-10-15T10:29:40.599Z,100104.16
2022-10-15T10:32:22.469Z,100095.19
2022-10-15T10:34:52.802Z,100081.69
2022-10-15T10:37:20.816Z,100095.50
2022-10-15T10:39:54.827Z,100091.09
2022-10-15T10:42:32.752Z,100116.69
2022-10-15T10:45:22.784Z,100095.19
2022-10-15T10:47:50.217Z,100089.19
2022-10-15T10:50:34.606Z,100097.84
2022-10-15T10:53:24.214Z,100102.22
2022-10-15T10:55:55.259Z,100096.94
2022-10-15T10:58:27.092Z,100094.13
2022-10-15T11:00:55.758Z,100083.19
2022-10-15T11:03:38.415Z,100098.78
2022-10-15T11:06:23.563Z,100084.44
2022-10-15T11:09:05.951Z,100087.75
2022-10-15T11:12:04.404Z,100082.38
2022-10-15T11:15:01.652Z,100090.44
2022-10-15T11:17:40.854Z,100087.50
2022-10-15T11:20:36.240Z,100085.94
2022-10-15T11:24:09.356Z,100077.47
2022-10-15T11:27:11.379Z,100093.81
2022-10-15T11:29:41.606Z,100089.00
2022-10-15T11:32:54.614Z,100099.28
2022-10-15T11:35:59.292Z,100099.56
2022-10-15T11:38:46.077Z,100085.81
2022-10-15T11:42:09.118Z,100082.31
2022-10-15T11:45:26.608Z,100084.41
2022-10-15T11:47:53.426Z,100082.88
2022-10-15T11:50:40.021Z,100089.03
2022-10-15T11:53:37.001Z,100080.25
2022-10-15T11:56:38.751Z,100086.41
2022-10-15T11:59:40.797Z,100083.75
2022-10-15T12:02:22.280Z,100076.63
2022-10-15T12:04:59.058Z,100080.28
2022-10-15T12:07:42.804Z,100070.63
2022-10-15T12:10:12.716Z,100076.72
2022-10-15T12:13:16.876Z,100079.50
2022-10-15T12:16:16.335Z,100077.59
2022-10-15T12:19:04.932Z,100071.50
2022-10-15T12:21:56.473Z,100081.34
2022-10-15T12:24:38.364Z,100074.22
2022-10-15T12:27:20.016Z,100068.84
2022-10-15T12:30:13.366Z,100079.53
2022-10-15T12:32:44.104Z,100073.41
2022-10-15T12:35:23.901Z,100075.16
2022-10-15T12:37:51.480Z,100068.00
2022-10-15T12:40:21.437Z,100067.22
2022-10-15T12:43:01.595Z,100074.38
2022-10-15T12:46:00.152Z,100074.41
2022-10-15T12:48:36.449Z,100066.38
2022-10-15T12:51:21.850Z,100062.81
2022-10-15T12:53:51.276Z,100059.28
2022-10-15T12:56:18.093Z,100069.97
2022-10-15T12:58:53.673Z,100064.69
2022-10-15T13:01:20.662Z,100070.88
2022-10-15T13:03:50.660Z,100070.84
2022-10-15T13:06:20.608Z,100068.25
2022-10-15T13:09:12.305Z,100062.94
2022-10-15T13:14:42.721Z,100069.22
2022-10-15T13:17:21.730Z,100063.72
2022-10-15T13:20:08.058Z,100059.34
2022-10-15T13:22:36.844Z,100059.41
2022-10-15T13:25:04.260Z,100058.47
2022-10-15T13:27:35.652Z,100060.38
2022-10-15T13:30:15.828Z,100066.50
2022-10-15T13:32:52.480Z,100059.38
2022-10-15T13:35:29.119Z,100059.41
2022-10-15T13:37:58.138Z,100062.97
2022-10-15T13:40:31.449Z,100073.69
2022-10-15T13:43:15.719Z,100058.56
2022-10-15T13:45:57.545Z,100062.09
2022-10-15T13:48:28.544Z,100058.53
2022-10-15T13:50:59.906Z,100065.69
2022-10-15T13:53:37.593Z,100066.50
2022-10-15T13:56:25.461Z,100066.53
2022-10-15T13:58:53.760Z,100063.00
2022-10-15T14:01:24.260Z,100071.00
2022-10-15T14:03:55.307Z,100061.25
2022-10-15T14:06:31.329Z,100057.59
2022-10-15T14:09:19.161Z,100063.03
2022-10-15T14:11:46.478Z,100071.91
2022-10-15T14:14:46.753Z,100066.66
2022-10-15T14:17:26.336Z,100069.28
2022-10-15T14:20:26.917Z,100075.56
2022-10-15T14:22:49.896Z,100073.72
2022-10-15T14:25:24.965Z,100073.69
2022-10-15T14:27:52.733Z,100078.28
2022-10-15T14:30:33.108Z,100074.66
2022-10-15T14:33:00.206Z,100076.44
2022-10-15T14:35:35.823Z,100073.81
2022-10-15T14:38:09.720Z,100074.69
2022-10-15T14:40:37.114Z,100075.56
2022-10-15T14:43:19.692Z,100074.69
2022-10-15T14:45:52.446Z,100079.16
2022-10-15T14:48:43.637Z,100070.25
2022-10-15T14:51:27.025Z,100075.63
2022-10-15T14:53:54.450Z,100071.19
2022-10-15T14:56:32.058Z,100072.03
2022-10-15T14:59:01.163Z,100074.72
2022-10-15T15:01:30.427Z,100079.19
2022-10-15T15:03:57.394Z,100075.59
2022-10-15T15:06:24.402Z,100086.28
2022-10-15T15:08:51.480Z,100085.41
2022-10-15T15:11:22.874Z,100082.72
2022-10-15T15:13:51.539Z,100088.09
2022-10-15T15:16:19.056Z,100086.31
2022-10-15T15:18:48.339Z,100084.53
2022-10-15T15:21:21.648Z,100086.28
2022-10-15T15:23:49.138Z,100091.63
2022-10-15T15:26:16.086Z,100086.31
2022-10-15T15:28:43.110Z,100089.84
2022-10-15T15:31:18.882Z,100090.72
2022-10-15T15:33:46.072Z,100096.97
2022-10-15T15:36:22.526Z,100104.97
2022-10-15T15:38:50.825Z,100096.06
2022-10-15T15:41:20.848Z,100101.41
2022-10-15T15:43:48.451Z,100104.09
2022-10-15T15:46:16.179Z,100102.31
2022-10-15T15:48:43.450Z,100098.72
2022-10-15T15:51:28.972Z,100097.81
2022-10-15T15:53:57.067Z,100097.84
2022-10-15T15:56:24.620Z,100104.06
2022-10-15T15:58:51.978Z,100100.50
2022-10-15T16:01:20.305Z,100091.63
2022-10-15T16:03:47.505Z,100093.41
2022-10-15T16:06:14.536Z,100097.84
2022-10-15T16:08:41.590Z,100104.97
2022-10-15T16:11:08.575Z,100105.84
2022-10-15T16:13:35.576Z,100110.31
2022-10-15T16:16:02.870Z,100113.81
2022-10-15T16:18:29.896Z,100106.72
2022-10-15T16:20:56.873Z,100112.09
2022-10-15T16:23:23.852Z,100120.06
2022-10-15T16:25:50.780Z,100120.06
2022-10-15T16:28:17.763Z,100120.09
2022-10-15T16:30:44.699Z,100124.53
2022-10-15T16:33:11.733Z,100130.75
2022-10-15T16:35:38.710Z,100128.09
2022-10-15T16:38:05.739Z,100129.88
2022-10-15T16:40:33.627Z,100132.56
2022-10-15T16:43:00.930Z,100139.69
2022-10-15T16:45:27.874Z,100141.47
2022-10-15T16:47:54.827Z,100145.00
2022-10-15T16:50:21.870Z,100148.53
2022-10-15T16:52:48.903Z,100157.47
2022-10-15T16:55:16.866Z,100161.00
2022-10-15T16:57:44.469Z,100163.66
2022-10-15T17:00:12.152Z,100170.78
2022-10-15T17:02:39.258Z,100173.38
2022-10-15T17:05:06.889Z,100175.19
2022-10-15T17:07:33.913Z,100169.75
2022-10-15T17:10:01.074Z,100169.66
2022-10-15T17:12:28.398Z,100170.47
2022-10-15T17:14:55.537Z,100173.19
2022-10-15T17:17:22.641Z,100164.44
2022-10-15T17:19:49.615Z,100163.56
2022-10-15T17:22:16.570Z,100166.97
2022-10-15T17:24:43.903Z,100164.25
2022-10-15T17:27:10.841Z,100173.16
2022-10-15T17:29:38.262Z,100158.84
2022-10-15T17:32:05.330Z,100155.28
2022-10-15T17:34:32.417Z,100165.09
2022-10-15T17:36:59.423Z,100166.91
2022-10-15T17:39:26.447Z,100156.16
2022-10-15T17:41:53.489Z,100172.06
2022-10-15T17:44:20.666Z,100172.09
2022-10-15T17:49:19.536Z,100170.38
2022-10-15T17:51:47.288Z,100172.97
2022-10-15T17:54:14.461Z,100170.41
2022-10-15T17:56:41.644Z,100165.88
2022-10-15T17:59:11.711Z,100165.03
2022-10-15T18:01:59.249Z,100171.25
2022-10-15T18:04:28.817Z,100164.09
2022-10-15T18:06:55.897Z,100180.09
2022-10-15T18:09:22.852Z,100165.81
2022-10-15T18:11:49.845Z,100165.88
2022-10-15T18:14:17.936Z,100173.81
2022-10-15T18:16:45.888Z,100179.22
2022-10-15T18:19:13.013Z,100174.78
2022-10-15T18:21:39.961Z,100190.78
2022-10-15T18:24:06.990Z,100194.34
2022-10-15T18:26:33.937Z,100183.72
2022-10-15T18:29:00.863Z,100183.56
2022-10-15T18:31:28.232Z,100190.78
2022-10-15T18:33:56.170Z,100183.59
2022-10-15T18:36:25.930Z,100190.72
2022-10-15T18:38:53.440Z,100193.41
2022-10-15T18:41:28.179Z,100199.66
2022-10-15T18:44:14.764Z,100204.91
2022-10-15T18:46:43.977Z,100192.41
2022-10-15T18:49:13.130Z,100193.41
2022-10-15T18:51:40.197Z,100188.06
2022-10-15T18:54:08.716Z,100196.09
2022-10-15T18:56:35.800Z,100205.78
2022-10-15T18:59:02.720Z,100204.97
2022-10-15T19:01:41.951Z,100208.38
2022-10-15T19:04:15.357Z,100207.47
2022-10-15T19:06:46.526Z,100212.75
2022-10-15T19:09:23.095Z,100218.16
2022-10-15T19:11:54.600Z,100210.09
2022-10-15T19:14:23.610Z,100226.13
2022-10-15T19:16:51.397Z,100223.50
2022-10-15T19:19:21.132Z,100221.63
2022-10-15T19:21:50.073Z,100218.06
2022-10-15T19:24:19.179Z,100218.13
2022-10-15T19:26:47.188Z,100225.09
2022-10-15T19:29:14.294Z,100213.66
2022-10-15T19:31:44.315Z,100234.91
2022-10-15T19:34:12.306Z,100233.06
2022-10-15T19:36:43.521Z,100216.97
2022-10-15T19:39:17.692Z,100231.22
2022-10-15T19:41:45.857Z,100230.16
2022-10-15T19:44:16.864Z,100240.94
2022-10-15T19:46:43.913Z,100241.03
2022-10-15T19:49:13.209Z,100244.56
2022-10-15T19:51:40.619Z,100241.97
2022-10-15T19:54:07.632Z,100239.09
2022-10-15T19:56:34.815Z,100248.75
2022-10-15T19:59:04.308Z,100243.69
2022-10-15T20:01:32.118Z,100249.84
2022-10-15T20:04:04.874Z,100259.41
2022-10-15T20:06:36.017Z,100254.84
2022-10-15T20:09:03.384Z,100265.34
2022-10-15T20:11:30.444Z,100271.72
2022-10-15T20:13:59.737Z,100270.69
2022-10-15T20:16:27.611Z,100276.19
2022-10-15T20:18:58.700Z,100277.00
2022-10-15T20:21:25.607Z,100273.25
2022-10-15T20:23:52.583Z,100276.78
2022-10-15T20:26:19.492Z,100274.06
2022-10-15T20:28:46.859Z,100276.81
2022-10-15T20:31:24.999Z,100284.69
2022-10-15T20:33:51.921Z,100274.88
2022-10-15T20:36:22.781Z,100280.41
2022-10-15T20:38:52.038Z,100284.00
2022-10-15T20:41:19.786Z,100286.50
2022-10-15T20:43:51.266Z,100294.28
2022-10-15T20:46:37.109Z,100289.22
2022-10-15T20:49:23.036Z,100294.53
2022-10-15T20:51:50.852Z,100290.25
2022-10-15T20:54:19.125Z,100282.84
2022-10-15T20:56:46.368Z,100280.88
2022-10-15T20:59:13.320Z,100295.41
2022-10-15T21:01:40.433Z,100291.63
2022-10-15T21:04:07.436Z,100288.22
2022-10-15T21:06:34.374Z,100294.38
2022-10-15T21:09:01.471Z,100291.81
2022-10-15T21:11:28.540Z,100290.66
2022-10-15T21:13:55.533Z,100298.81
2022-10-15T21:16:25.893Z,100296.78
2022-10-15T21:18:55.305Z,100301.53
2022-10-15T21:21:22.214Z,100300.53
2022-10-15T21:23:49.226Z,100298.81
2022-10-15T21:26:18.013Z,100304.31
2022-10-15T21:28:47.762Z,100318.72
2022-10-15T21:31:17.807Z,100316.63
2022-10-15T21:33:46.068Z,100314.06
2022-10-15T21:36:22.384Z,100317.31
2022-10-15T21:39:01.005Z,100318.19
2022-10-15T21:41:31.408Z,100320.97
2022-10-15T21:44:00.174Z,100324.28
2022-10-15T21:46:28.111Z,100333.47
2022-10-15T21:48:55.211Z,100334.13
2022-10-15T21:51:26.150Z,100335.09
2022-10-15T21:53:55.341Z,100335.75
2022-10-15T21:56:22.960Z,100339.47
2022-10-15T21:58:50.099Z,100331.53
2022-10-15T22:01:21.871Z,100335.88
2022-10-15T22:03:51.261Z,100335.38
2022-10-15T22:06:19.907Z,100333.31
2022-10-15T22:08:47.850Z,100341.44
2022-10-15T22:11:22.305Z,100331.28
2022-10-15T22:13:56.435Z,100335.13
2022-10-15T22:16:25.671Z,100335.44
2022-10-15T22:18:53.279Z,100344.56
2022-10-15T22:21:36.522Z,100345.56
2022-10-15T22:24:12.107Z,100345.28
2022-10-15T22:26:43.039Z,100345.63
2022-10-15T22:29:31.707Z,100355.94
2022-10-15T22:32:01.593Z,100354.97
2022-10-15T22:34:28.603Z,100346.69
2022-10-15T22:36:55.650Z,100344.75
2022-10-15T22:39:22.588Z,100356.78
2022-10-15T22:41:49.620Z,100357.22
2022-10-15T22:44:20.101Z,100359.56
2022-10-15T22:46:49.400Z,100352.47
2022-10-15T22:49:21.535Z,100355.13
2022-10-15T22:51:49.841Z,100360.53
2022-10-15T22:54:19.252Z,100360.44
2022-10-15T22:56:47.395Z,100353.34
2022-10-15T22:59:15.473Z,100351.53
2022-10-15T23:01:43.026Z,100358.63
2022-10-15T23:04:13.934Z,100357.19
2022-10-15T23:06:41.377Z,100350.81
2022-10-15T23:09:10.894Z,100361.25
2022-10-15T23:11:40.215Z,100363.09
2022-10-15T23:14:14.530Z,100357.63
2022-10-15T23:16:45.291Z,100356.78
2022-10-15T23:19:20.707Z,100359.53
2022-10-15T23:21:55.457Z,100361.38
2022-10-15T23:24:26.110Z,100364.84
2022-10-15T23:26:53.553Z,100365.75
2022-10-15T23:29:24.031Z,100366.56
2022-10-15T23:31:52.291Z,100366.47
2022-10-15T23:34:23.055Z,100377.03
2022-10-15T23:36:50.507Z,100377.03
2022-10-15T23:39:21.829Z,100372.66
2022-10-15T23:41:49.156Z,100374.38
2022-10-15T23:44:16.132Z,100369.94
2022-10-15T23:46:43.592Z,100375.47
2022-10-15T23:49:10.926Z,100375.47
2022-10-15T23:51:38.491Z,100367.28
2022-10-15T23:54:16.321Z,100378.97
2022-10-15T23:56:44.195Z,100378.22
2022-10-15T23:59:11.934Z,100379.78
